createdAt,value
2016-09-13T00:00:11.205Z,67.65
2016-09-13T00:00:33.291Z,67.27
2016-09-13T00:00:54.907Z,66.59
2016-09-13T00:01:16.725Z,66.71
2016-09-13T00:01:38.641Z,66.55
2016-09-13T00:02:00.363Z,66.24
2016-09-13T00:02:22.158Z,66.47
2016-09-13T00:02:43.912Z,67.36
2016-09-13T00:03:05.646Z,67.90
2016-09-13T00:03:27.511Z,68.21
2016-09-13T00:03:49.338Z,68.41
2016-09-13T00:04:11.135Z,68.40
2016-09-13T00:04:32.872Z,68.58
2016-09-13T00:04:54.706Z,68.79
2016-09-13T00:05:21.301Z,68.55
2016-09-13T00:05:43.038Z,68.83
2016-09-13T00:06:04.785Z,68.20
2016-09-13T00:06:26.520Z,67.42
2016-09-13T00:06:48.408Z,66.76
2016-09-13T00:07:10.203Z,66.61
2016-09-13T00:07:36.696Z,66.97
2016-09-13T00:07:58.452Z,66.87
2016-09-13T00:08:29.713Z,66.79
2016-09-13T00:08:52.621Z,66.17
2016-09-13T00:09:14.370Z,65.71
2016-09-13T00:10:09.262Z,65.49
2016-09-13T00:10:31.087Z,65.74
2016-09-13T00:10:52.820Z,65.81
2016-09-13T00:11:14.578Z,66.20
2016-09-13T00:11:36.335Z,66.71
2016-09-13T00:11:58.055Z,66.85
2016-09-13T00:12:19.861Z,66.73
2016-09-13T00:12:41.719Z,66.99
2016-09-13T00:13:08.290Z,67.29
2016-09-13T00:13:31.147Z,66.96
2016-09-13T00:13:52.926Z,66.69
2016-09-13T00:14:14.661Z,67.10
2016-09-13T00:14:36.382Z,67.37
2016-09-13T00:14:58.103Z,67.61
2016-09-13T00:15:20.862Z,68.05
2016-09-13T00:15:42.593Z,68.68
2016-09-13T00:16:04.359Z,68.67
2016-09-13T00:16:26.155Z,68.08
2016-09-13T00:16:47.879Z,67.62
2016-09-13T00:17:09.692Z,67.18
2016-09-13T00:17:31.448Z,66.78
2016-09-13T00:17:54.188Z,66.99
2016-09-13T00:18:15.967Z,66.96
2016-09-13T00:18:37.691Z,67.02
2016-09-13T00:18:59.438Z,67.08
2016-09-13T00:19:21.182Z,67.24
2016-09-13T00:19:42.916Z,67.61
2016-09-13T00:20:04.843Z,68.06
2016-09-13T00:20:26.901Z,68.14
2016-09-13T00:21:15.131Z,68.77
2016-09-13T00:21:37.870Z,69.33
2016-09-13T00:21:59.598Z,69.47
2016-09-13T00:22:21.339Z,69.17
2016-09-13T00:23:09.598Z,69.24
2016-09-13T00:23:31.358Z,69.55
2016-09-13T00:23:54.091Z,69.38
2016-09-13T00:24:18.834Z,69.55
2016-09-13T00:24:40.579Z,69.52
2016-09-13T00:25:02.411Z,69.45
2016-09-13T00:25:24.164Z,68.58
2016-09-13T00:25:45.970Z,67.85
2016-09-13T00:26:07.710Z,67.02
2016-09-13T00:26:34.216Z,66.97
2016-09-13T00:26:56.046Z,67.26
2016-09-13T00:27:17.793Z,67.77
2016-09-13T00:27:44.354Z,67.51
2016-09-13T00:28:06.107Z,67.86
2016-09-13T00:28:27.852Z,68.26
2016-09-13T00:28:49.687Z,68.54
2016-09-13T00:29:11.515Z,68.46
2016-09-13T00:29:33.262Z,68.43
2016-09-13T00:29:55.035Z,68.41
2016-09-13T00:30:16.794Z,68.31
2016-09-13T00:30:38.548Z,68.10
2016-09-13T00:31:26.878Z,67.61
2016-09-13T00:31:48.657Z,67.56
2016-09-13T00:32:10.417Z,67.25
2016-09-13T00:32:32.167Z,67.61
2016-09-13T00:32:53.912Z,67.50
2016-09-13T00:33:15.675Z,67.66
2016-09-13T00:33:42.187Z,68.04
2016-09-13T00:34:03.931Z,68.41
2016-09-13T00:34:26.692Z,68.43
2016-09-13T00:35:15.226Z,67.70
2016-09-13T00:35:36.965Z,67.47
2016-09-13T00:35:58.714Z,67.88
2016-09-13T00:36:20.540Z,68.52
2016-09-13T00:36:42.274Z,68.17
2016-09-13T00:37:05.009Z,68.01
2016-09-13T00:37:26.744Z,68.48
2016-09-13T00:37:48.487Z,68.49
2016-09-13T00:38:15.029Z,68.98
2016-09-13T00:38:36.831Z,68.96
2016-09-13T00:38:58.603Z,68.64
2016-09-13T00:39:20.370Z,68.05
2016-09-13T00:39:42.141Z,67.40
2016-09-13T00:40:03.873Z,67.32
2016-09-13T00:40:25.662Z,67.02
2016-09-13T00:40:47.473Z,66.53
2016-09-13T00:41:09.374Z,66.69
2016-09-13T00:41:31.129Z,66.75
2016-09-13T00:41:52.869Z,66.51
2016-09-13T00:42:14.607Z,66.53
2016-09-13T00:42:36.414Z,66.70
2016-09-13T00:42:58.164Z,66.75
2016-09-13T00:43:19.966Z,66.87
2016-09-13T00:43:41.720Z,66.67
2016-09-13T00:44:03.569Z,66.81
2016-09-13T00:44:25.301Z,67.33
2016-09-13T00:44:48.049Z,67.82
2016-09-13T00:45:09.790Z,67.73
2016-09-13T00:45:31.524Z,67.01
2016-09-13T00:45:53.268Z,66.57
2016-09-13T00:46:15.048Z,66.14
2016-09-13T00:46:36.833Z,66.85
2016-09-13T00:46:59.665Z,67.39
2016-09-13T00:47:21.428Z,67.64
2016-09-13T00:47:43.165Z,67.91
2016-09-13T00:48:04.942Z,67.78
2016-09-13T00:48:26.692Z,67.84
2016-09-13T00:48:48.555Z,67.37
2016-09-13T00:49:10.283Z,67.42
2016-09-13T00:49:32.017Z,67.43
2016-09-13T00:49:53.793Z,67.15
2016-09-13T00:50:15.579Z,67.16
2016-09-13T00:50:37.329Z,67.00
2016-09-13T00:50:59.067Z,66.91
2016-09-13T00:51:20.801Z,67.27
2016-09-13T00:51:42.539Z,67.46
2016-09-13T00:52:04.341Z,67.97
2016-09-13T00:52:26.079Z,68.29
2016-09-13T00:52:47.809Z,68.46
2016-09-13T00:53:09.659Z,68.25
2016-09-13T00:53:31.393Z,68.48
2016-09-13T00:53:53.137Z,68.64
2016-09-13T00:54:14.859Z,68.92
2016-09-13T00:54:36.625Z,68.86
2016-09-13T00:54:58.363Z,68.61
2016-09-13T00:55:20.104Z,68.42
2016-09-13T00:55:41.847Z,67.84
2016-09-13T00:56:03.588Z,67.32
2016-09-13T00:56:25.329Z,66.85
2016-09-13T00:56:47.079Z,66.56
2016-09-13T00:57:08.833Z,66.14
2016-09-13T00:57:30.558Z,65.96
2016-09-13T00:57:52.311Z,65.59
2016-09-13T00:58:14.138Z,65.40
2016-09-13T00:58:35.892Z,66.06
2016-09-13T00:58:57.736Z,66.82
2016-09-13T00:59:19.460Z,67.27
2016-09-13T00:59:41.205Z,67.76
2016-09-13T01:00:02.965Z,67.61
2016-09-13T01:00:24.708Z,67.36
2016-09-13T01:00:46.519Z,67.13
2016-09-13T01:01:08.245Z,66.60
2016-09-13T01:01:29.979Z,66.11
2016-09-13T01:01:51.735Z,66.11
2016-09-13T01:02:13.477Z,66.40
2016-09-13T01:02:39.984Z,66.99
2016-09-13T01:03:02.731Z,67.76
2016-09-13T01:03:24.596Z,68.23
2016-09-13T01:03:46.366Z,68.68
2016-09-13T01:04:12.942Z,69.01
2016-09-13T01:04:34.718Z,68.91
2016-09-13T01:04:56.449Z,68.52
2016-09-13T01:05:18.185Z,67.98
2016-09-13T01:05:44.705Z,67.79
2016-09-13T01:06:06.503Z,67.58
2016-09-13T01:06:28.241Z,66.96
2016-09-13T01:06:54.734Z,67.17
2016-09-13T01:07:16.484Z,67.65
2016-09-13T01:07:38.244Z,68.11
2016-09-13T01:07:59.969Z,68.71
2016-09-13T01:08:21.771Z,69.36
2016-09-13T01:08:43.549Z,69.88
2016-09-13T01:09:05.288Z,69.84
2016-09-13T01:09:27.185Z,70.09
2016-09-13T01:09:49.025Z,69.81
2016-09-13T01:10:10.772Z,69.46
2016-09-13T01:10:33.524Z,68.62
2016-09-13T01:10:55.261Z,67.99
2016-09-13T01:11:16.992Z,67.63
2016-09-13T01:11:38.731Z,67.94
2016-09-13T01:12:00.462Z,68.02
2016-09-13T01:12:22.283Z,68.15
2016-09-13T01:12:44.167Z,68.57
2016-09-13T01:13:32.471Z,69.57
2016-09-13T01:13:54.209Z,69.70
2016-09-13T01:14:15.954Z,69.79
2016-09-13T01:14:37.719Z,69.83
2016-09-13T01:14:59.460Z,69.82
2016-09-13T01:15:21.315Z,69.71
2016-09-13T01:15:43.175Z,69.82
2016-09-13T01:16:05.038Z,69.86
2016-09-13T01:16:26.939Z,69.65
2016-09-13T01:16:48.840Z,68.73
2016-09-13T01:17:10.596Z,68.28
2016-09-13T01:17:32.366Z,67.76
2016-09-13T01:17:54.093Z,67.48
2016-09-13T01:18:15.832Z,68.17
2016-09-13T01:19:04.109Z,68.53
2016-09-13T01:19:25.860Z,68.12
2016-09-13T01:19:47.601Z,67.87
2016-09-13T01:20:10.372Z,67.72
2016-09-13T01:20:32.170Z,67.67
2016-09-13T01:20:53.928Z,67.51
2016-09-13T01:21:15.662Z,67.11
2016-09-13T01:21:37.457Z,67.24
2016-09-13T01:22:03.965Z,67.48
2016-09-13T01:22:25.710Z,67.16
2016-09-13T01:22:47.441Z,66.81
2016-09-13T01:23:09.184Z,66.79
2016-09-13T01:23:30.920Z,66.52
2016-09-13T01:24:19.204Z,66.01
2016-09-13T01:24:40.933Z,65.91
2016-09-13T01:25:03.678Z,66.13
2016-09-13T01:25:25.434Z,66.68
2016-09-13T01:25:47.205Z,67.32
2016-09-13T01:26:08.942Z,68.39
2016-09-13T01:26:30.663Z,68.98
2016-09-13T01:27:20.072Z,70.08
2016-09-13T01:27:46.612Z,70.40
2016-09-13T01:28:08.459Z,70.61
2016-09-13T01:28:31.189Z,71.21
2016-09-13T01:28:57.697Z,71.52
2016-09-13T01:29:19.425Z,71.28
2016-09-13T01:29:41.150Z,70.79
2016-09-13T01:30:02.894Z,69.97
2016-09-13T01:30:24.721Z,69.88
2016-09-13T01:30:46.504Z,69.69
2016-09-13T01:31:08.250Z,69.25
2016-09-13T01:31:30.126Z,69.78
2016-09-13T01:31:51.886Z,70.13
2016-09-13T01:32:13.640Z,70.25
2016-09-13T01:32:35.450Z,70.30
2016-09-13T01:32:57.169Z,70.12
2016-09-13T01:33:19.003Z,69.76
2016-09-13T01:33:40.891Z,70.25
2016-09-13T01:34:02.622Z,70.71
2016-09-13T01:34:24.354Z,70.92
2016-09-13T01:34:46.090Z,70.76
2016-09-13T01:35:07.834Z,70.56
2016-09-13T01:35:29.719Z,70.13
2016-09-13T01:35:51.457Z,69.89
2016-09-13T01:36:13.253Z,69.58
2016-09-13T01:36:36.062Z,69.33
2016-09-13T01:37:02.570Z,68.98
2016-09-13T01:37:24.299Z,69.25
2016-09-13T01:37:46.036Z,68.82
2016-09-13T01:38:07.844Z,68.59
2016-09-13T01:38:30.629Z,68.22
2016-09-13T01:38:52.373Z,67.84
2016-09-13T01:39:16.162Z,67.57
2016-09-13T01:39:42.660Z,67.67
2016-09-13T01:40:09.266Z,68.12
2016-09-13T01:40:32.004Z,68.92
2016-09-13T01:40:53.755Z,69.20
2016-09-13T01:41:15.518Z,68.69
2016-09-13T01:41:37.301Z,68.73
2016-09-13T01:41:59.156Z,68.90
2016-09-13T01:42:21.022Z,68.90
2016-09-13T01:42:47.528Z,69.65
2016-09-13T01:43:09.259Z,69.90
2016-09-13T01:43:31.032Z,70.00
2016-09-13T01:43:52.817Z,70.29
2016-09-13T01:44:14.571Z,70.07
2016-09-13T01:44:36.336Z,70.07
2016-09-13T01:44:58.068Z,69.97
2016-09-13T01:45:19.811Z,70.24
2016-09-13T01:45:41.553Z,70.43
2016-09-13T01:46:03.285Z,69.76
2016-09-13T01:46:25.026Z,70.14
2016-09-13T01:46:46.770Z,70.14
2016-09-13T01:47:08.606Z,70.35
2016-09-13T01:47:30.420Z,70.43
2016-09-13T01:47:52.330Z,70.26
2016-09-13T01:48:14.055Z,70.31
2016-09-13T01:48:35.813Z,70.66
2016-09-13T01:48:57.605Z,71.08
2016-09-13T01:49:19.400Z,71.54
2016-09-13T01:49:41.239Z,71.80
2016-09-13T01:50:03.016Z,71.55
2016-09-13T01:50:24.798Z,70.76
2016-09-13T01:50:46.568Z,70.08
2016-09-13T01:51:08.520Z,69.29
2016-09-13T01:51:31.271Z,68.80
2016-09-13T01:51:53.028Z,68.27
2016-09-13T01:52:14.759Z,68.33
2016-09-13T01:52:36.554Z,68.55
2016-09-13T01:52:58.292Z,69.30
2016-09-13T01:53:20.043Z,70.25
2016-09-13T01:53:41.796Z,70.73
2016-09-13T01:54:04.523Z,71.15
2016-09-13T01:54:26.270Z,71.27
2016-09-13T01:54:50.699Z,71.25
2016-09-13T01:55:39.054Z,71.22
2016-09-13T01:56:05.576Z,71.51
2016-09-13T01:56:27.416Z,71.92
2016-09-13T01:56:49.147Z,71.93
2016-09-13T01:57:10.887Z,71.93
2016-09-13T01:57:32.627Z,72.04
2016-09-13T01:57:54.350Z,71.87
2016-09-13T01:58:16.089Z,72.27
2016-09-13T01:58:42.590Z,72.39
2016-09-13T01:59:04.305Z,71.97
2016-09-13T01:59:26.069Z,71.85
2016-09-13T01:59:47.905Z,72.06
2016-09-13T02:00:09.659Z,71.96
2016-09-13T02:00:31.572Z,71.95
2016-09-13T02:00:53.470Z,72.28
2016-09-13T02:01:15.224Z,72.32
2016-09-13T02:01:36.943Z,72.38
2016-09-13T02:01:58.682Z,71.68
2016-09-13T02:02:20.417Z,70.92
2016-09-13T02:02:42.165Z,70.57
2016-09-13T02:03:03.912Z,70.34
2016-09-13T02:03:25.646Z,69.88
2016-09-13T02:03:47.386Z,69.84
2016-09-13T02:04:10.123Z,69.66
2016-09-13T02:04:31.856Z,69.30
2016-09-13T02:04:58.350Z,69.25
2016-09-13T02:05:20.075Z,69.73
2016-09-13T02:05:41.822Z,70.48
2016-09-13T02:06:03.550Z,71.24
2016-09-13T02:06:25.394Z,71.89
2016-09-13T02:06:47.115Z,72.34
2016-09-13T02:07:08.852Z,72.96
2016-09-13T02:07:35.345Z,73.34
2016-09-13T02:07:57.195Z,73.75
2016-09-13T02:08:18.934Z,73.59
2016-09-13T02:08:41.797Z,73.34
2016-09-13T02:09:03.521Z,73.31
2016-09-13T02:09:25.301Z,73.02
2016-09-13T02:09:47.127Z,73.10
2016-09-13T02:10:09.121Z,72.43
2016-09-13T02:10:30.840Z,72.43
2016-09-13T02:10:52.577Z,72.57
2016-09-13T02:11:14.315Z,72.82
2016-09-13T02:11:37.096Z,72.72
2016-09-13T02:11:58.907Z,73.04
2016-09-13T02:12:20.708Z,72.80
2016-09-13T02:12:42.481Z,72.62
2016-09-13T02:13:04.366Z,73.12
2016-09-13T02:13:26.184Z,73.29
2016-09-13T02:13:47.912Z,73.15
2016-09-13T02:14:09.656Z,73.15
2016-09-13T02:14:31.410Z,73.01
2016-09-13T02:14:57.911Z,72.99
2016-09-13T02:15:19.652Z,73.45
2016-09-13T02:15:41.380Z,73.69
2016-09-13T02:16:04.117Z,73.58
2016-09-13T02:16:26.856Z,73.03
2016-09-13T02:16:48.587Z,72.84
2016-09-13T02:17:10.341Z,72.66
2016-09-13T02:17:32.075Z,72.21
2016-09-13T02:17:53.854Z,71.84
2016-09-13T02:18:15.590Z,72.50
2016-09-13T02:18:37.390Z,72.74
2016-09-13T02:18:59.117Z,72.31
2016-09-13T02:19:20.929Z,72.06
2016-09-13T02:19:42.754Z,72.02
2016-09-13T02:20:04.612Z,72.02
2016-09-13T02:20:26.357Z,72.20
2016-09-13T02:20:48.248Z,72.40
2016-09-13T02:21:10.107Z,72.78
2016-09-13T02:21:31.861Z,73.42
2016-09-13T02:21:53.601Z,73.57
2016-09-13T02:22:15.336Z,73.87
2016-09-13T02:22:37.132Z,73.88
2016-09-13T02:22:58.868Z,74.08
2016-09-13T02:23:21.617Z,73.69
2016-09-13T02:23:43.361Z,73.41
2016-09-13T02:24:05.185Z,73.08
2016-09-13T02:24:26.924Z,73.03
2016-09-13T02:24:48.654Z,73.32
2016-09-13T02:25:10.398Z,73.74
2016-09-13T02:25:32.154Z,74.32
2016-09-13T02:25:58.661Z,74.59
2016-09-13T02:26:20.392Z,74.26
2016-09-13T02:26:42.123Z,74.12
2016-09-13T02:27:03.873Z,73.89
2016-09-13T02:27:26.609Z,73.72
2016-09-13T02:27:48.404Z,73.78
2016-09-13T02:28:11.156Z,74.02
2016-09-13T02:28:32.907Z,73.92
2016-09-13T02:28:54.632Z,73.67
2016-09-13T02:29:16.532Z,73.24
2016-09-13T02:29:38.344Z,73.21
2016-09-13T02:30:00.078Z,73.29
2016-09-13T02:30:21.819Z,73.25
2016-09-13T02:30:43.553Z,73.49
2016-09-13T02:31:05.288Z,73.95
2016-09-13T02:31:27.027Z,74.19
2016-09-13T02:31:48.820Z,74.09
2016-09-13T02:32:10.757Z,74.17
2016-09-13T02:32:32.654Z,73.99
2016-09-13T02:32:54.413Z,74.17
2016-09-13T02:33:16.225Z,74.29
2016-09-13T02:33:37.953Z,74.26
2016-09-13T02:33:59.956Z,74.14
2016-09-13T02:34:21.720Z,73.76
2016-09-13T02:34:43.547Z,73.63
2016-09-13T02:35:05.390Z,73.66
2016-09-13T02:35:27.131Z,73.48
2016-09-13T02:35:48.871Z,73.42
2016-09-13T02:36:10.606Z,73.22
2016-09-13T02:36:32.437Z,72.47
2016-09-13T02:36:54.257Z,72.21
2016-09-13T02:37:17.063Z,71.73
2016-09-13T02:37:39.003Z,71.28
2016-09-13T02:38:00.970Z,70.79
2016-09-13T02:38:23.137Z,70.30
2016-09-13T02:38:44.859Z,70.24
2016-09-13T02:39:06.600Z,70.00
2016-09-13T02:39:28.351Z,69.57
2016-09-13T02:39:50.087Z,69.39
2016-09-13T02:40:11.828Z,69.70
2016-09-13T02:40:38.599Z,69.64
2016-09-13T02:41:00.331Z,69.48
2016-09-13T02:41:22.062Z,69.81
2016-09-13T02:41:43.883Z,70.41
2016-09-13T02:42:05.618Z,71.34
2016-09-13T02:42:27.409Z,71.85
2016-09-13T02:42:49.146Z,71.77
2016-09-13T02:43:11.883Z,71.85
2016-09-13T02:43:33.668Z,72.22
2016-09-13T02:43:55.399Z,72.29
2016-09-13T02:44:17.135Z,72.85
2016-09-13T02:44:39.877Z,72.82
2016-09-13T02:45:01.627Z,72.75
2016-09-13T02:45:23.470Z,72.67
2016-09-13T02:45:45.112Z,72.33
2016-09-13T02:46:06.843Z,72.35
2016-09-13T02:46:28.648Z,72.52
2016-09-13T02:46:50.436Z,72.79
2016-09-13T02:47:12.191Z,73.21
2016-09-13T02:47:34.008Z,73.05
2016-09-13T02:47:55.810Z,72.53
2016-09-13T02:48:17.605Z,72.27
2016-09-13T02:49:05.903Z,72.59
2016-09-13T02:49:27.643Z,72.48
2016-09-13T02:49:49.405Z,72.45
2016-09-13T02:50:11.215Z,71.85
2016-09-13T02:50:32.952Z,71.34
2016-09-13T02:50:57.519Z,71.22
2016-09-13T02:51:19.240Z,71.55
2016-09-13T02:51:41.035Z,72.10
2016-09-13T02:52:03.774Z,71.91
2016-09-13T02:52:25.505Z,71.33
2016-09-13T02:52:47.237Z,70.84
2016-09-13T02:53:08.961Z,70.67
2016-09-13T02:53:30.712Z,71.04
2016-09-13T02:53:52.533Z,72.03
2016-09-13T02:54:14.258Z,72.82
2016-09-13T02:54:36.014Z,73.16
2016-09-13T02:54:57.761Z,73.62
2016-09-13T02:55:19.505Z,73.69
2016-09-13T02:55:41.349Z,73.61
2016-09-13T02:56:03.148Z,73.70
2016-09-13T02:56:24.895Z,73.76
2016-09-13T02:56:46.680Z,73.98
2016-09-13T02:57:08.440Z,74.10
2016-09-13T02:57:30.318Z,74.15
2016-09-13T02:57:52.221Z,73.92
2016-09-13T02:58:13.986Z,72.96
2016-09-13T02:58:35.876Z,72.54
2016-09-13T02:58:57.608Z,72.87
2016-09-13T02:59:19.355Z,73.53
2016-09-13T02:59:41.083Z,73.98
2016-09-13T03:00:02.856Z,73.97
2016-09-13T03:00:24.647Z,74.02
2016-09-13T03:00:47.381Z,74.16
2016-09-13T03:01:09.138Z,74.09
2016-09-13T03:01:30.875Z,74.02
2016-09-13T03:01:52.661Z,74.18
2016-09-13T03:02:14.389Z,74.08
2016-09-13T03:02:37.156Z,74.04
2016-09-13T03:02:58.897Z,73.98
2016-09-13T03:03:20.658Z,73.89
2016-09-13T03:03:42.430Z,73.08
2016-09-13T03:04:04.220Z,72.30
2016-09-13T03:04:26.027Z,72.01
2016-09-13T03:04:47.775Z,71.60
2016-09-13T03:05:09.566Z,70.91
2016-09-13T03:05:31.390Z,70.56
2016-09-13T03:05:53.125Z,70.51
2016-09-13T03:06:15.000Z,70.23
2016-09-13T03:06:36.879Z,70.34
2016-09-13T03:06:58.660Z,70.66
2016-09-13T03:07:20.392Z,71.07
2016-09-13T03:07:42.148Z,71.76
2016-09-13T03:08:03.995Z,72.38
2016-09-13T03:08:25.778Z,72.99
2016-09-13T03:08:47.561Z,73.45
2016-09-13T03:09:09.285Z,74.04
2016-09-13T03:09:31.135Z,73.56
2016-09-13T03:09:53.016Z,72.93
2016-09-13T03:10:14.808Z,71.95
2016-09-13T03:10:36.542Z,71.62
2016-09-13T03:10:58.367Z,71.25
2016-09-13T03:11:20.101Z,71.19
2016-09-13T03:11:41.861Z,71.50
2016-09-13T03:12:03.614Z,72.37
2016-09-13T03:12:25.410Z,72.88
2016-09-13T03:12:47.195Z,73.43
2016-09-13T03:13:08.955Z,73.24
2016-09-13T03:13:31.723Z,73.47
2016-09-13T03:13:53.454Z,73.94
2016-09-13T03:14:16.226Z,74.56
2016-09-13T03:14:37.989Z,74.66
2016-09-13T03:14:59.730Z,74.69
2016-09-13T03:15:21.524Z,74.26
2016-09-13T03:15:43.250Z,74.20
2016-09-13T03:16:05.000Z,74.33
2016-09-13T03:16:26.741Z,74.40
2016-09-13T03:16:48.495Z,73.54
2016-09-13T03:17:10.347Z,72.73
2016-09-13T03:17:32.081Z,72.72
2016-09-13T03:17:53.832Z,73.48
2016-09-13T03:18:15.579Z,74.43
2016-09-13T03:18:37.304Z,74.74
2016-09-13T03:18:59.157Z,74.68
2016-09-13T03:19:20.949Z,75.05
2016-09-13T03:19:42.701Z,75.28
2016-09-13T03:20:04.427Z,75.34
2016-09-13T03:20:26.158Z,75.22
2016-09-13T03:20:47.887Z,74.87
2016-09-13T03:21:09.630Z,74.95
2016-09-13T03:21:31.410Z,74.37
2016-09-13T03:21:53.288Z,73.32
2016-09-13T03:22:15.058Z,72.46
2016-09-13T03:22:36.792Z,71.88
2016-09-13T03:22:58.546Z,72.15
2016-09-13T03:23:21.256Z,72.75
2016-09-13T03:23:43.039Z,72.36
2016-09-13T03:24:09.598Z,73.73
2016-09-13T03:24:36.168Z,74.88
2016-09-13T03:24:57.931Z,75.00
2016-09-13T03:25:19.680Z,75.04
2016-09-13T03:25:41.429Z,75.01
2016-09-13T03:26:03.247Z,74.89
2016-09-13T03:26:25.039Z,74.72
2016-09-13T03:26:47.769Z,74.05
2016-09-13T03:27:09.613Z,73.23
2016-09-13T03:27:31.359Z,72.36
2016-09-13T03:27:53.103Z,72.42
2016-09-13T03:28:14.869Z,72.39
2016-09-13T03:28:36.646Z,72.93
2016-09-13T03:28:58.530Z,73.59
2016-09-13T03:29:20.242Z,73.70
2016-09-13T03:29:41.976Z,73.77
2016-09-13T03:30:03.723Z,73.73
2016-09-13T03:30:25.444Z,73.96
2016-09-13T03:30:47.180Z,73.71
2016-09-13T03:31:08.982Z,73.60
2016-09-13T03:31:30.738Z,73.25
2016-09-13T03:31:52.463Z,72.67
2016-09-13T03:32:14.322Z,73.17
2016-09-13T03:32:36.143Z,74.01
2016-09-13T03:32:57.874Z,74.02
2016-09-13T03:33:19.621Z,73.14
2016-09-13T03:33:41.362Z,72.36
2016-09-13T03:34:03.177Z,71.78
2016-09-13T03:34:25.148Z,71.83
2016-09-13T03:34:46.994Z,72.07
2016-09-13T03:35:08.811Z,72.67
2016-09-13T03:35:30.604Z,73.23
2016-09-13T03:35:52.364Z,73.61
2016-09-13T03:36:14.095Z,73.94
2016-09-13T03:36:40.591Z,73.99
2016-09-13T03:37:02.352Z,73.47
2016-09-13T03:37:28.924Z,72.93
2016-09-13T03:37:50.715Z,72.51
2016-09-13T03:38:12.492Z,71.70
2016-09-13T03:38:34.270Z,71.40
2016-09-13T03:39:00.760Z,71.32
2016-09-13T03:39:22.722Z,71.50
2016-09-13T03:39:44.514Z,71.56
2016-09-13T03:40:06.248Z,71.69
2016-09-13T03:40:28.036Z,71.90
2016-09-13T03:40:49.764Z,71.99
2016-09-13T03:41:11.669Z,72.52
2016-09-13T03:41:33.525Z,73.01
2016-09-13T03:41:55.250Z,73.06
2016-09-13T03:42:16.991Z,73.68
2016-09-13T03:42:38.732Z,73.81
2016-09-13T03:43:00.459Z,73.94
2016-09-13T03:43:22.223Z,74.58
2016-09-13T03:43:44.059Z,74.67
2016-09-13T03:44:05.784Z,74.60
2016-09-13T03:44:27.522Z,75.05
2016-09-13T03:44:49.253Z,75.43
2016-09-13T03:45:10.997Z,75.75
2016-09-13T03:45:32.737Z,75.94
2016-09-13T03:45:54.475Z,76.00
2016-09-13T03:46:16.226Z,76.31
2016-09-13T03:46:37.967Z,76.45
2016-09-13T03:46:59.707Z,76.55
2016-09-13T03:47:21.577Z,76.57
2016-09-13T03:47:43.297Z,76.44
2016-09-13T03:48:05.033Z,76.04
2016-09-13T03:48:26.770Z,75.64
2016-09-13T03:48:48.687Z,75.27
2016-09-13T03:49:10.412Z,74.70
2016-09-13T03:49:32.188Z,74.01
2016-09-13T03:49:53.991Z,73.72
2016-09-13T03:50:15.723Z,73.58
2016-09-13T03:50:37.448Z,73.57
2016-09-13T03:51:03.957Z,74.51
2016-09-13T03:51:25.681Z,74.95
2016-09-13T03:51:48.421Z,75.11
2016-09-13T03:52:10.148Z,75.03
2016-09-13T03:52:31.873Z,74.50
2016-09-13T03:52:53.608Z,74.34
2016-09-13T03:53:15.358Z,74.76
2016-09-13T03:53:37.128Z,75.06
2016-09-13T03:53:58.885Z,75.16
2016-09-13T03:54:20.622Z,75.45
2016-09-13T03:54:42.357Z,75.58
2016-09-13T03:55:04.095Z,75.57
2016-09-13T03:55:25.829Z,75.54
2016-09-13T03:55:47.579Z,75.00
2016-09-13T03:56:09.329Z,74.65
2016-09-13T03:56:31.060Z,74.77
2016-09-13T03:56:57.557Z,73.61
2016-09-13T03:57:19.282Z,73.33
2016-09-13T03:57:41.055Z,73.39
2016-09-13T03:58:02.885Z,73.60
2016-09-13T03:58:24.619Z,73.20
2016-09-13T03:58:46.379Z,73.39
2016-09-13T03:59:08.114Z,73.54
2016-09-13T03:59:34.623Z,73.95
2016-09-13T03:59:56.357Z,74.88
2016-09-13T04:00:18.197Z,75.95
2016-09-13T04:00:40.032Z,76.49
2016-09-13T04:01:28.261Z,76.44
2016-09-13T04:01:50.002Z,75.81
2016-09-13T04:02:11.765Z,75.33
2016-09-13T04:02:33.631Z,75.44
2016-09-13T04:02:55.291Z,75.91
2016-09-13T04:03:17.058Z,76.20
2016-09-13T04:03:38.770Z,76.41
2016-09-13T04:04:00.508Z,76.35
2016-09-13T04:04:22.380Z,76.49
2016-09-13T04:04:44.280Z,76.45
2016-09-13T04:05:06.044Z,76.50
2016-09-13T04:05:27.784Z,76.80
2016-09-13T04:05:49.518Z,76.68
2016-09-13T04:06:11.371Z,76.99
2016-09-13T04:06:33.106Z,76.93
2016-09-13T04:06:54.859Z,76.77
2016-09-13T04:07:16.587Z,76.80
2016-09-13T04:07:38.322Z,76.54
2016-09-13T04:08:00.069Z,75.95
2016-09-13T04:08:21.797Z,74.96
2016-09-13T04:08:43.522Z,74.15
2016-09-13T04:09:05.327Z,73.60
2016-09-13T04:09:27.056Z,73.53
2016-09-13T04:09:48.790Z,73.61
2016-09-13T04:10:10.523Z,73.96
2016-09-13T04:10:32.274Z,73.85
2016-09-13T04:10:54.021Z,73.27
2016-09-13T04:11:15.972Z,73.49
2016-09-13T04:11:37.733Z,73.63
2016-09-13T04:11:59.461Z,74.17
2016-09-13T04:12:21.273Z,74.37
2016-09-13T04:12:43.026Z,74.68
2016-09-13T04:13:04.758Z,74.81
2016-09-13T04:13:26.606Z,74.49
2016-09-13T04:13:48.347Z,73.95
2016-09-13T04:14:10.168Z,73.80
2016-09-13T04:14:31.884Z,73.34
2016-09-13T04:14:53.611Z,74.33
2016-09-13T04:15:15.365Z,75.23
2016-09-13T04:15:37.096Z,75.49
2016-09-13T04:15:58.833Z,75.97
2016-09-13T04:16:20.565Z,76.39
2016-09-13T04:16:43.298Z,76.71
2016-09-13T04:17:05.173Z,76.77
2016-09-13T04:17:29.467Z,76.49
2016-09-13T04:17:53.758Z,75.21
2016-09-13T04:18:16.498Z,74.72
2016-09-13T04:18:38.222Z,74.14
2016-09-13T04:18:59.950Z,73.41
2016-09-13T04:19:21.711Z,73.47
2016-09-13T04:19:44.441Z,73.39
2016-09-13T04:20:06.239Z,74.30
2016-09-13T04:20:27.973Z,74.34
2016-09-13T04:20:49.726Z,74.06
2016-09-13T04:21:11.477Z,73.56
2016-09-13T04:21:33.224Z,73.79
2016-09-13T04:21:54.962Z,74.18
2016-09-13T04:22:21.458Z,74.01
2016-09-13T04:22:43.243Z,74.04
2016-09-13T04:23:04.980Z,74.30
2016-09-13T04:23:26.728Z,74.45
2016-09-13T04:23:48.485Z,74.97
2016-09-13T04:24:10.210Z,74.83
2016-09-13T04:24:31.954Z,74.99
2016-09-13T04:24:53.688Z,75.28
2016-09-13T04:25:15.422Z,75.67
2016-09-13T04:25:37.208Z,75.96
2016-09-13T04:25:58.946Z,76.28
2016-09-13T04:26:20.695Z,75.72
2016-09-13T04:26:42.487Z,74.79
2016-09-13T04:27:04.306Z,74.72
2016-09-13T04:27:27.112Z,75.26
2016-09-13T04:27:50.833Z,75.61
2016-09-13T04:28:18.366Z,75.79
2016-09-13T04:28:41.090Z,75.89
2016-09-13T04:29:02.853Z,76.18
2016-09-13T04:29:24.575Z,76.01
2016-09-13T04:29:46.315Z,76.46
2016-09-13T04:30:39.311Z,77.16
2016-09-13T04:31:01.058Z,77.39
2016-09-13T04:31:22.776Z,77.78
2016-09-13T04:31:44.508Z,77.58
2016-09-13T04:32:06.229Z,76.78
2016-09-13T04:32:27.946Z,76.98
2016-09-13T04:32:49.665Z,77.51
2016-09-13T04:33:11.397Z,78.13
2016-09-13T04:33:33.118Z,78.42
2016-09-13T04:33:54.843Z,78.39
2016-09-13T04:34:16.559Z,77.92
2016-09-13T04:34:38.296Z,77.28
2016-09-13T04:35:00.017Z,77.15
2016-09-13T04:35:21.733Z,76.82
2016-09-13T04:35:43.447Z,76.46
2016-09-13T04:36:05.182Z,75.35
2016-09-13T04:36:26.894Z,74.44
2016-09-13T04:36:48.622Z,74.21
2016-09-13T04:37:10.410Z,74.04
2016-09-13T04:37:32.128Z,73.82
2016-09-13T04:37:53.854Z,74.16
2016-09-13T04:38:15.579Z,74.36
2016-09-13T04:38:37.300Z,74.12
2016-09-13T04:38:59.019Z,74.27
2016-09-13T04:39:20.743Z,74.05
2016-09-13T04:39:42.464Z,73.72
2016-09-13T04:40:04.196Z,73.30
2016-09-13T04:40:25.907Z,73.56
2016-09-13T04:40:47.643Z,74.19
2016-09-13T04:41:09.424Z,74.56
2016-09-13T04:41:31.153Z,74.64
2016-09-13T04:41:52.871Z,75.35
2016-09-13T04:42:14.592Z,75.65
2016-09-13T04:42:36.317Z,75.96
2016-09-13T04:42:58.062Z,75.72
2016-09-13T04:43:19.802Z,75.51
2016-09-13T04:43:41.527Z,76.14
2016-09-13T04:44:03.267Z,76.75
2016-09-13T04:44:24.983Z,76.98
2016-09-13T04:44:46.698Z,77.10
2016-09-13T04:45:08.421Z,77.55
2016-09-13T04:45:30.164Z,77.90
2016-09-13T04:45:51.878Z,77.97
2016-09-13T04:46:13.610Z,78.18
2016-09-13T04:46:35.346Z,78.42
2016-09-13T04:46:57.072Z,78.32
2016-09-13T04:47:18.793Z,78.48
2016-09-13T04:47:40.525Z,78.64
2016-09-13T04:48:02.250Z,78.69
2016-09-13T04:48:23.984Z,79.05
2016-09-13T04:48:45.699Z,79.33
2016-09-13T04:49:07.417Z,79.29
2016-09-13T04:49:29.141Z,79.40
2016-09-13T04:49:50.863Z,79.68
2016-09-13T04:50:12.585Z,79.83